sensor_id;sensor_type;location;lat;lon;timestamp;P1;durP1;ratioP1;P2;durP2;ratioP2
75682;SDS011;64295;44.772;39.872;2022-10-22T00:00:14;7.55;;;3.85;;
75682;SDS011;64295;44.772;39.872;2022-10-22T00:02:41;5.97;;;3.58;;
75682;SDS011;64295;44.772;39.872;2022-10-22T00:05:07;8.68;;;4.15;;
75682;SDS011;64295;44.772;39.872;2022-10-22T00:07:34;9.45;;;4.38;;
75682;SDS011;64295;44.772;39.872;2022-10-22T00:10:00;10.40;;;4.45;;
75682;SDS011;64295;44.772;39.872;2022-10-22T00:12:26;9.52;;;4.65;;
75682;SDS011;64295;44.772;39.872;2022-10-22T00:14:52;6.28;;;4.10;;
75682;SDS011;64295;44.772;39.872;2022-10-22T00:17:18;9.80;;;5.20;;
75682;SDS011;64295;44.772;39.872;2022-10-22T00:19:44;8.45;;;4.07;;
75682;SDS011;64295;44.772;39.872;2022-10-22T00:22:10;6.20;;;4.70;;
75682;SDS011;64295;44.772;39.872;2022-10-22T00:24:37;8.35;;;4.82;;
75682;SDS011;64295;44.772;39.872;2022-10-22T00:27:04;6.15;;;4.20;;
75682;SDS011;64295;44.772;39.872;2022-10-22T00:29:32;7.63;;;4.38;;
75682;SDS011;64295;44.772;39.872;2022-10-22T00:31:59;6.35;;;4.40;;
75682;SDS011;64295;44.772;39.872;2022-10-22T00:34:25;10.88;;;5.05;;
75682;SDS011;64295;44.772;39.872;2022-10-22T00:36:51;7.40;;;4.05;;
75682;SDS011;64295;44.772;39.872;2022-10-22T00:39:18;6.70;;;4.68;;
75682;SDS011;64295;44.772;39.872;2022-10-22T00:41:46;8.13;;;4.55;;
75682;SDS011;64295;44.772;39.872;2022-10-22T00:47:16;5.60;;;3.83;;
75682;SDS011;64295;44.772;39.872;2022-10-22T00:49:43;8.70;;;3.63;;
75682;SDS011;64295;44.772;39.872;2022-10-22T00:52:11;10.20;;;4.57;;
75682;SDS011;64295;44.772;39.872;2022-10-22T00:54:37;7.70;;;4.28;;
75682;SDS011;64295;44.772;39.872;2022-10-22T00:57:04;7.57;;;3.47;;
75682;SDS011;64295;44.772;39.872;2022-10-22T00:59:30;8.82;;;4.00;;
75682;SDS011;64295;44.772;39.872;2022-10-22T01:01:56;6.57;;;3.88;;
75682;SDS011;64295;44.772;39.872;2022-10-22T01:04:22;9.05;;;4.25;;
75682;SDS011;64295;44.772;39.872;2022-10-22T01:06:48;6.78;;;3.30;;
75682;SDS011;64295;44.772;39.872;2022-10-22T01:31:01;4.47;;;3.30;;
75682;SDS011;64295;44.772;39.872;2022-10-22T01:33:29;6.85;;;3.17;;
75682;SDS011;64295;44.772;39.872;2022-10-22T01:35:56;6.88;;;3.05;;
75682;SDS011;64295;44.772;39.872;2022-10-22T01:38:24;9.32;;;3.40;;
75682;SDS011;64295;44.772;39.872;2022-10-22T01:40:51;9.85;;;3.22;;
75682;SDS011;64295;44.772;39.872;2022-10-22T01:43:17;5.40;;;3.15;;
75682;SDS011;64295;44.772;39.872;2022-10-22T01:45:46;3.75;;;2.60;;
75682;SDS011;64295;44.772;39.872;2022-10-22T02:04:48;6.30;;;3.75;;
75682;SDS011;64295;44.772;39.872;2022-10-22T02:07:20;8.73;;;3.08;;
75682;SDS011;64295;44.772;39.872;2022-10-22T02:09:50;4.32;;;3.70;;
75682;SDS011;64295;44.772;39.872;2022-10-22T02:12:18;4.47;;;3.00;;
75682;SDS011;64295;44.772;39.872;2022-10-22T02:14:47;6.20;;;3.17;;
75682;SDS011;64295;44.772;39.872;2022-10-22T02:17:17;5.95;;;2.85;;
75682;SDS011;64295;44.772;39.872;2022-10-22T02:19:51;8.60;;;3.97;;
75682;SDS011;64295;44.772;39.872;2022-10-22T02:22:20;7.53;;;3.95;;
75682;SDS011;64295;44.772;39.872;2022-10-22T02:24:46;7.50;;;4.93;;
75682;SDS011;64295;44.772;39.872;2022-10-22T02:27:17;8.55;;;4.70;;
75682;SDS011;64295;44.772;39.872;2022-10-22T02:32:22;9.43;;;4.90;;
75682;SDS011;64295;44.772;39.872;2022-10-22T02:34:52;7.53;;;4.28;;
75682;SDS011;64295;44.772;39.872;2022-10-22T02:37:20;10.50;;;4.38;;
75682;SDS011;64295;44.772;39.872;2022-10-22T02:39:47;13.40;;;5.15;;
75682;SDS011;64295;44.772;39.872;2022-10-22T02:42:15;7.97;;;3.95;;
75682;SDS011;64295;44.772;39.872;2022-10-22T02:44:42;9.70;;;4.80;;
75682;SDS011;64295;44.772;39.872;2022-10-22T02:47:08;10.45;;;4.93;;
75682;SDS011;64295;44.772;39.872;2022-10-22T02:49:34;7.93;;;4.72;;
75682;SDS011;64295;44.772;39.872;2022-10-22T02:52:00;6.93;;;4.32;;
75682;SDS011;64295;44.772;39.872;2022-10-22T02:54:26;7.85;;;4.63;;
75682;SDS011;64295;44.772;39.872;2022-10-22T02:56:52;9.88;;;3.70;;
75682;SDS011;64295;44.772;39.872;2022-10-22T02:59:18;7.88;;;3.28;;
75682;SDS011;64295;44.772;39.872;2022-10-22T03:01:44;6.05;;;3.17;;
75682;SDS011;64295;44.772;39.872;2022-10-22T03:04:10;7.72;;;2.75;;
75682;SDS011;64295;44.772;39.872;2022-10-22T03:06:35;6.38;;;2.83;;
75682;SDS011;64295;44.772;39.872;2022-10-22T03:09:01;5.70;;;2.45;;
75682;SDS011;64295;44.772;39.872;2022-10-22T03:11:27;4.53;;;2.65;;
75682;SDS011;64295;44.772;39.872;2022-10-22T03:13:53;3.67;;;2.78;;
75682;SDS011;64295;44.772;39.872;2022-10-22T03:16:19;6.13;;;2.95;;
75682;SDS011;64295;44.772;39.872;2022-10-22T03:18:45;4.93;;;2.63;;
75682;SDS011;64295;44.772;39.872;2022-10-22T03:21:19;5.68;;;2.80;;
75682;SDS011;64295;44.772;39.872;2022-10-22T03:24:12;6.88;;;3.42;;
75682;SDS011;64295;44.772;39.872;2022-10-22T03:26:42;6.90;;;3.38;;
75682;SDS011;64295;44.772;39.872;2022-10-22T03:29:10;4.65;;;3.40;;
75682;SDS011;64295;44.772;39.872;2022-10-22T03:31:38;7.18;;;3.80;;
75682;SDS011;64295;44.772;39.872;2022-10-22T03:34:04;6.38;;;4.75;;
75682;SDS011;64295;44.772;39.872;2022-10-22T03:36:30;7.53;;;3.58;;
75682;SDS011;64295;44.772;39.872;2022-10-22T03:39:01;5.85;;;3.08;;
75682;SDS011;64295;44.772;39.872;2022-10-22T03:41:28;9.25;;;4.07;;
75682;SDS011;64295;44.772;39.872;2022-10-22T03:43:54;9.98;;;3.40;;
75682;SDS011;64295;44.772;39.872;2022-10-22T03:46:21;5.30;;;3.65;;
75682;SDS011;64295;44.772;39.872;2022-10-22T03:48:48;6.32;;;3.50;;
75682;SDS011;64295;44.772;39.872;2022-10-22T03:51:14;8.68;;;3.30;;
75682;SDS011;64295;44.772;39.872;2022-10-22T03:53:39;6.10;;;3.40;;
75682;SDS011;64295;44.772;39.872;2022-10-22T03:56:09;7.72;;;3.58;;
75682;SDS011;64295;44.772;39.872;2022-10-22T03:58:39;4.85;;;2.67;;
75682;SDS011;64295;44.772;39.872;2022-10-22T04:01:06;4.90;;;2.80;;
75682;SDS011;64295;44.772;39.872;2022-10-22T04:03:33;5.43;;;2.75;;
75682;SDS011;64295;44.772;39.872;2022-10-22T04:06:03;8.43;;;3.90;;
75682;SDS011;64295;44.772;39.872;2022-10-22T04:08:31;8.40;;;4.20;;
75682;SDS011;64295;44.772;39.872;2022-10-22T04:10:57;10.60;;;4.60;;
75682;SDS011;64295;44.772;39.872;2022-10-22T04:13:23;6.97;;;4.22;;
75682;SDS011;64295;44.772;39.872;2022-10-22T04:15:49;9.43;;;4.35;;
75682;SDS011;64295;44.772;39.872;2022-10-22T04:18:20;9.45;;;4.68;;
75682;SDS011;64295;44.772;39.872;2022-10-22T04:20:47;7.18;;;4.78;;
75682;SDS011;64295;44.772;39.872;2022-10-22T04:23:16;10.80;;;4.55;;
75682;SDS011;64295;44.772;39.872;2022-10-22T04:25:42;12.23;;;4.65;;
75682;SDS011;64295;44.772;39.872;2022-10-22T04:28:08;11.30;;;5.15;;
75682;SDS011;64295;44.772;39.872;2022-10-22T04:30:35;13.88;;;4.85;;
75682;SDS011;64295;44.772;39.872;2022-10-22T04:33:01;6.57;;;4.35;;
75682;SDS011;64295;44.772;39.872;2022-10-22T04:35:27;9.45;;;4.68;;
75682;SDS011;64295;44.772;39.872;2022-10-22T04:37:54;7.05;;;4.35;;
75682;SDS011;64295;44.772;39.872;2022-10-22T04:40:20;8.65;;;3.92;;
75682;SDS011;64295;44.772;39.872;2022-10-22T04:42:46;8.23;;;4.15;;
75682;SDS011;64295;44.772;39.872;2022-10-22T04:45:12;10.00;;;4.25;;
75682;SDS011;64295;44.772;39.872;2022-10-22T04:47:39;8.15;;;3.97;;
75682;SDS011;64295;44.772;39.872;2022-10-22T04:50:06;6.40;;;3.85;;
75682;SDS011;64295;44.772;39.872;2022-10-22T04:52:32;4.45;;;3.03;;
75682;SDS011;64295;44.772;39.872;2022-10-22T04:54:58;6.05;;;3.95;;
75682;SDS011;64295;44.772;39.872;2022-10-22T04:57:26;5.25;;;3.25;;
75682;SDS011;64295;44.772;39.872;2022-10-22T04:59:55;5.78;;;2.88;;
75682;SDS011;64295;44.772;39.872;2022-10-22T05:02:21;8.90;;;3.80;;
75682;SDS011;64295;44.772;39.872;2022-10-22T05:04:47;7.30;;;3.58;;
75682;SDS011;64295;44.772;39.872;2022-10-22T05:07:22;6.43;;;3.33;;
75682;SDS011;64295;44.772;39.872;2022-10-22T05:09:48;7.20;;;3.55;;
75682;SDS011;64295;44.772;39.872;2022-10-22T05:12:17;6.97;;;3.90;;
75682;SDS011;64295;44.772;39.872;2022-10-22T05:14:43;7.53;;;4.07;;
75682;SDS011;64295;44.772;39.872;2022-10-22T05:17:09;10.45;;;3.97;;
75682;SDS011;64295;44.772;39.872;2022-10-22T05:19:35;6.63;;;3.47;;
75682;SDS011;64295;44.772;39.872;2022-10-22T05:22:02;7.38;;;3.58;;
75682;SDS011;64295;44.772;39.872;2022-10-22T05:24:29;7.05;;;3.90;;
75682;SDS011;64295;44.772;39.872;2022-10-22T05:26:57;8.23;;;4.57;;
75682;SDS011;64295;44.772;39.872;2022-10-22T05:29:24;10.30;;;5.35;;
75682;SDS011;64295;44.772;39.872;2022-10-22T05:31:50;9.73;;;5.20;;
75682;SDS011;64295;44.772;39.872;2022-10-22T05:34:17;10.95;;;5.20;;
75682;SDS011;64295;44.772;39.872;2022-10-22T05:36:44;10.93;;;4.90;;
75682;SDS011;64295;44.772;39.872;2022-10-22T05:39:10;14.30;;;5.45;;
75682;SDS011;64295;44.772;39.872;2022-10-22T05:41:36;9.60;;;4.88;;
75682;SDS011;64295;44.772;39.872;2022-10-22T05:44:03;11.00;;;5.57;;
75682;SDS011;64295;44.772;39.872;2022-10-22T05:46:31;8.75;;;5.05;;
75682;SDS011;64295;44.772;39.872;2022-10-22T05:49:00;18.42;;;9.60;;
75682;SDS011;64295;44.772;39.872;2022-10-22T05:51:28;33.65;;;14.48;;
75682;SDS011;64295;44.772;39.872;2022-10-22T05:54:00;11.20;;;4.97;;
75682;SDS011;64295;44.772;39.872;2022-10-22T05:56:27;8.20;;;5.30;;
75682;SDS011;64295;44.772;39.872;2022-10-22T05:58:54;11.82;;;5.65;;
75682;SDS011;64295;44.772;39.872;2022-10-22T06:01:25;15.80;;;5.88;;
75682;SDS011;64295;44.772;39.872;2022-10-22T06:03:56;12.60;;;6.38;;
75682;SDS011;64295;44.772;39.872;2022-10-22T06:06:34;14.02;;;5.88;;
75682;SDS011;64295;44.772;39.872;2022-10-22T06:11:46;13.82;;;5.43;;
75682;SDS011;64295;44.772;39.872;2022-10-22T06:14:13;9.55;;;5.38;;
75682;SDS011;64295;44.772;39.872;2022-10-22T06:16:39;14.80;;;7.03;;
75682;SDS011;64295;44.772;39.872;2022-10-22T06:19:06;21.48;;;10.07;;
75682;SDS011;64295;44.772;39.872;2022-10-22T06:21:32;11.07;;;5.57;;
75682;SDS011;64295;44.772;39.872;2022-10-22T06:23:59;7.07;;;4.35;;
75682;SDS011;64295;44.772;39.872;2022-10-22T06:26:25;9.10;;;4.22;;
75682;SDS011;64295;44.772;39.872;2022-10-22T06:28:51;8.95;;;3.92;;
75682;SDS011;64295;44.772;39.872;2022-10-22T06:31:18;5.93;;;3.95;;
75682;SDS011;64295;44.772;39.872;2022-10-22T06:33:44;7.10;;;3.17;;
75682;SDS011;64295;44.772;39.872;2022-10-22T06:36:11;7.75;;;3.55;;
75682;SDS011;64295;44.772;39.872;2022-10-22T06:38:38;5.88;;;3.58;;
75682;SDS011;64295;44.772;39.872;2022-10-22T06:41:06;3.85;;;2.42;;
75682;SDS011;64295;44.772;39.872;2022-10-22T06:43:33;6.47;;;3.45;;
75682;SDS011;64295;44.772;39.872;2022-10-22T06:46:00;4.65;;;3.13;;
75682;SDS011;64295;44.772;39.872;2022-10-22T06:48:27;6.35;;;3.60;;
75682;SDS011;64295;44.772;39.872;2022-10-22T06:50:53;6.85;;;4.72;;
75682;SDS011;64295;44.772;39.872;2022-10-22T06:53:19;8.20;;;3.00;;
75682;SDS011;64295;44.772;39.872;2022-10-22T06:55:45;5.93;;;3.40;;
75682;SDS011;64295;44.772;39.872;2022-10-22T06:58:10;5.32;;;3.20;;
75682;SDS011;64295;44.772;39.872;2022-10-22T07:00:36;5.85;;;2.53;;
75682;SDS011;64295;44.772;39.872;2022-10-22T07:03:02;4.35;;;2.67;;
75682;SDS011;64295;44.772;39.872;2022-10-22T07:05:28;4.22;;;2.50;;
75682;SDS011;64295;44.772;39.872;2022-10-22T07:07:54;3.15;;;2.05;;
75682;SDS011;64295;44.772;39.872;2022-10-22T07:10:20;4.43;;;2.17;;
75682;SDS011;64295;44.772;39.872;2022-10-22T07:12:46;2.95;;;2.00;;
75682;SDS011;64295;44.772;39.872;2022-10-22T07:15:12;2.65;;;2.03;;
75682;SDS011;64295;44.772;39.872;2022-10-22T07:17:40;13.23;;;7.70;;
75682;SDS011;64295;44.772;39.872;2022-10-22T07:20:06;8.23;;;5.35;;
75682;SDS011;64295;44.772;39.872;2022-10-22T07:22:32;5.40;;;2.05;;
75682;SDS011;64295;44.772;39.872;2022-10-22T07:24:58;4.72;;;2.17;;
75682;SDS011;64295;44.772;39.872;2022-10-22T07:27:24;3.75;;;1.85;;
75682;SDS011;64295;44.772;39.872;2022-10-22T07:29:50;3.05;;;1.60;;
75682;SDS011;64295;44.772;39.872;2022-10-22T07:32:16;2.00;;;1.65;;
75682;SDS011;64295;44.772;39.872;2022-10-22T07:34:42;3.30;;;1.50;;
75682;SDS011;64295;44.772;39.872;2022-10-22T07:37:07;2.80;;;1.70;;
75682;SDS011;64295;44.772;39.872;2022-10-22T07:39:33;19.50;;;10.93;;
75682;SDS011;64295;44.772;39.872;2022-10-22T07:41:59;2.95;;;1.58;;
75682;SDS011;64295;44.772;39.872;2022-10-22T07:44:25;5.13;;;1.67;;
75682;SDS011;64295;44.772;39.872;2022-10-22T07:46:51;3.47;;;1.30;;
75682;SDS011;64295;44.772;39.872;2022-10-22T07:49:17;2.38;;;1.60;;
75682;SDS011;64295;44.772;39.872;2022-10-22T07:51:43;2.40;;;1.60;;
75682;SDS011;64295;44.772;39.872;2022-10-22T07:54:09;2.08;;;1.30;;
75682;SDS011;64295;44.772;39.872;2022-10-22T07:56:35;2.97;;;1.75;;
75682;SDS011;64295;44.772;39.872;2022-10-22T07:59:00;2.50;;;1.55;;
75682;SDS011;64295;44.772;39.872;2022-10-22T08:01:26;2.47;;;1.50;;
75682;SDS011;64295;44.772;39.872;2022-10-22T08:03:52;2.53;;;1.70;;
75682;SDS011;64295;44.772;39.872;2022-10-22T08:06:18;1.63;;;1.40;;
75682;SDS011;64295;44.772;39.872;2022-10-22T08:08:44;2.55;;;1.48;;
75682;SDS011;64295;44.772;39.872;2022-10-22T08:11:10;3.85;;;1.73;;
75682;SDS011;64295;44.772;39.872;2022-10-22T08:13:36;1.42;;;1.23;;
75682;SDS011;64295;44.772;39.872;2022-10-22T08:16:02;3.08;;;1.98;;
75682;SDS011;64295;44.772;39.872;2022-10-22T08:18:28;3.33;;;1.58;;
75682;SDS011;64295;44.772;39.872;2022-10-22T08:20:55;2.00;;;1.52;;
75682;SDS011;64295;44.772;39.872;2022-10-22T08:23:21;3.50;;;2.05;;
75682;SDS011;64295;44.772;39.872;2022-10-22T08:25:47;2.60;;;1.35;;
75682;SDS011;64295;44.772;39.872;2022-10-22T08:28:13;3.28;;;1.27;;
75682;SDS011;64295;44.772;39.872;2022-10-22T08:30:39;2.53;;;1.85;;
75682;SDS011;64295;44.772;39.872;2022-10-22T08:33:05;3.10;;;1.98;;
75682;SDS011;64295;44.772;39.872;2022-10-22T08:35:31;2.80;;;2.05;;
75682;SDS011;64295;44.772;39.872;2022-10-22T08:37:57;3.50;;;1.92;;
75682;SDS011;64295;44.772;39.872;2022-10-22T08:40:31;3.42;;;1.60;;
75682;SDS011;64295;44.772;39.872;2022-10-22T08:51:10;4.63;;;3.10;;
75682;SDS011;64295;44.772;39.872;2022-10-22T08:56:26;2.95;;;2.08;;
75682;SDS011;64295;44.772;39.872;2022-10-22T08:59:56;3.17;;;2.67;;
75682;SDS011;64295;44.772;39.872;2022-10-22T09:01:57;3.60;;;2.00;;
75682;SDS011;64295;44.772;39.872;2022-10-22T09:04:32;2.95;;;2.30;;
75682;SDS011;64295;44.772;39.872;2022-10-22T09:07:02;3.80;;;2.72;;
75682;SDS011;64295;44.772;39.872;2022-10-22T09:09:29;2.95;;;2.00;;
75682;SDS011;64295;44.772;39.872;2022-10-22T09:12:00;3.03;;;2.08;;
75682;SDS011;64295;44.772;39.872;2022-10-22T09:14:31;6.18;;;2.92;;
75682;SDS011;64295;44.772;39.872;2022-10-22T09:19:46;2.75;;;2.20;;
75682;SDS011;64295;44.772;39.872;2022-10-22T09:22:32;5.07;;;3.53;;
75682;SDS011;64295;44.772;39.872;2022-10-22T09:25:21;4.90;;;2.80;;
75682;SDS011;64295;44.772;39.872;2022-10-22T09:27:47;4.38;;;2.72;;
75682;SDS011;64295;44.772;39.872;2022-10-22T09:30:15;4.88;;;3.20;;
75682;SDS011;64295;44.772;39.872;2022-10-22T09:32:47;3.22;;;2.28;;
75682;SDS011;64295;44.772;39.872;2022-10-22T09:35:20;3.38;;;2.30;;
75682;SDS011;64295;44.772;39.872;2022-10-22T09:37:49;5.97;;;2.78;;
75682;SDS011;64295;44.772;39.872;2022-10-22T09:40:17;2.85;;;2.22;;
75682;SDS011;64295;44.772;39.872;2022-10-22T09:42:44;4.72;;;2.42;;
75682;SDS011;64295;44.772;39.872;2022-10-22T09:45:14;2.85;;;1.92;;
75682;SDS011;64295;44.772;39.872;2022-10-22T09:47:45;6.47;;;3.40;;
75682;SDS011;64295;44.772;39.872;2022-10-22T09:52:44;4.40;;;3.05;;
75682;SDS011;64295;44.772;39.872;2022-10-22T09:55:18;3.80;;;2.25;;
75682;SDS011;64295;44.772;39.872;2022-10-22T09:57:51;5.45;;;3.70;;
75682;SDS011;64295;44.772;39.872;2022-10-22T10:00:19;49.78;;;31.20;;
75682;SDS011;64295;44.772;39.872;2022-10-22T10:02:45;4.38;;;3.28;;
75682;SDS011;64295;44.772;39.872;2022-10-22T10:05:18;4.18;;;3.63;;
75682;SDS011;64295;44.772;39.872;2022-10-22T10:07:49;7.32;;;4.53;;
75682;SDS011;64295;44.772;39.872;2022-10-22T10:10:40;4.90;;;3.35;;
75682;SDS011;64295;44.772;39.872;2022-10-22T10:13:03;6.20;;;3.45;;
75682;SDS011;64295;44.772;39.872;2022-10-22T10:15:43;6.53;;;4.60;;
75682;SDS011;64295;44.772;39.872;2022-10-22T10:26:17;3.80;;;2.63;;
75682;SDS011;64295;44.772;39.872;2022-10-22T10:29:02;3.35;;;2.28;;
75682;SDS011;64295;44.772;39.872;2022-10-22T10:31:44;5.75;;;3.00;;
75682;SDS011;64295;44.772;39.872;2022-10-22T10:37:34;3.83;;;1.98;;
75682;SDS011;64295;44.772;39.872;2022-10-22T10:42:54;4.13;;;1.70;;
75682;SDS011;64295;44.772;39.872;2022-10-22T11:07:06;2.20;;;1.70;;
75682;SDS011;64295;44.772;39.872;2022-10-22T11:09:42;2.63;;;1.60;;
75682;SDS011;64295;44.772;39.872;2022-10-22T11:12:17;2.22;;;1.80;;
75682;SDS011;64295;44.772;39.872;2022-10-22T11:19:59;2.45;;;1.60;;
75682;SDS011;64295;44.772;39.872;2022-10-22T11:22:36;2.80;;;1.58;;
75682;SDS011;64295;44.772;39.872;2022-10-22T11:30:42;1.63;;;1.05;;
75682;SDS011;64295;44.772;39.872;2022-10-22T11:33:11;1.38;;;0.90;;
75682;SDS011;64295;44.772;39.872;2022-10-22T11:35:43;1.83;;;1.05;;
75682;SDS011;64295;44.772;39.872;2022-10-22T11:38:13;18.35;;;12.70;;
75682;SDS011;64295;44.772;39.872;2022-10-22T11:40:46;12.73;;;8.20;;
75682;SDS011;64295;44.772;39.872;2022-10-22T11:43:26;1.88;;;1.20;;
75682;SDS011;64295;44.772;39.872;2022-10-22T11:45:57;2.95;;;1.50;;
75682;SDS011;64295;44.772;39.872;2022-10-22T11:48:35;1.27;;;1.10;;
75682;SDS011;64295;44.772;39.872;2022-10-22T11:51:02;2.20;;;1.40;;
75682;SDS011;64295;44.772;39.872;2022-10-22T12:12:00;2.08;;;1.38;;
75682;SDS011;64295;44.772;39.872;2022-10-22T12:14:32;130.80;;;58.55;;
75682;SDS011;64295;44.772;39.872;2022-10-22T12:17:14;13.35;;;6.30;;
75682;SDS011;64295;44.772;39.872;2022-10-22T12:19:44;2.65;;;2.08;;
75682;SDS011;64295;44.772;39.872;2022-10-22T12:22:20;10.85;;;4.57;;
75682;SDS011;64295;44.772;39.872;2022-10-22T12:24:51;16.75;;;5.75;;
75682;SDS011;64295;44.772;39.872;2022-10-22T12:27:20;3.30;;;1.90;;
75682;SDS011;64295;44.772;39.872;2022-10-22T12:29:48;12.13;;;5.15;;
75682;SDS011;64295;44.772;39.872;2022-10-22T12:32:34;7.28;;;3.28;;
75682;SDS011;64295;44.772;39.872;2022-10-22T12:35:08;2.60;;;1.27;;
75682;SDS011;64295;44.772;39.872;2022-10-22T12:37:44;1.85;;;1.10;;
75682;SDS011;64295;44.772;39.872;2022-10-22T12:40:27;6.30;;;2.35;;
75682;SDS011;64295;44.772;39.872;2022-10-22T12:43:03;6.45;;;2.95;;
75682;SDS011;64295;44.772;39.872;2022-10-22T12:45:35;2.50;;;1.58;;
75682;SDS011;64295;44.772;39.872;2022-10-22T12:48:03;4.07;;;1.60;;
75682;SDS011;64295;44.772;39.872;2022-10-22T12:50:33;1.83;;;1.15;;
75682;SDS011;64295;44.772;39.872;2022-10-22T12:53:26;1.77;;;1.23;;
75682;SDS011;64295;44.772;39.872;2022-10-22T12:56:05;2.33;;;1.15;;
75682;SDS011;64295;44.772;39.872;2022-10-22T12:58:37;2.95;;;1.67;;
75682;SDS011;64295;44.772;39.872;2022-10-22T13:01:06;1.33;;;1.00;;
75682;SDS011;64295;44.772;39.872;2022-10-22T13:03:45;4.78;;;2.30;;
75682;SDS011;64295;44.772;39.872;2022-10-22T13:08:44;4.22;;;2.90;;
75682;SDS011;64295;44.772;39.872;2022-10-22T13:11:20;5.13;;;2.33;;
75682;SDS011;64295;44.772;39.872;2022-10-22T13:13:46;17.48;;;7.63;;
75682;SDS011;64295;44.772;39.872;2022-10-22T13:16:16;129.75;;;59.00;;
75682;SDS011;64295;44.772;39.872;2022-10-22T13:18:50;24.60;;;11.95;;
75682;SDS011;64295;44.772;39.872;2022-10-22T13:21:59;16.95;;;7.10;;
75682;SDS011;64295;44.772;39.872;2022-10-22T13:26:52;11.30;;;5.32;;
75682;SDS011;64295;44.772;39.872;2022-10-22T13:29:19;8.27;;;2.72;;
75682;SDS011;64295;44.772;39.872;2022-10-22T13:31:47;7.97;;;2.45;;
75682;SDS011;64295;44.772;39.872;2022-10-22T13:34:20;10.00;;;5.60;;
75682;SDS011;64295;44.772;39.872;2022-10-22T13:36:49;5.47;;;2.80;;
75682;SDS011;64295;44.772;39.872;2022-10-22T13:41:47;4.07;;;2.40;;
75682;SDS011;64295;44.772;39.872;2022-10-22T13:44:17;6.57;;;2.47;;
75682;SDS011;64295;44.772;39.872;2022-10-22T13:46:44;9.13;;;4.78;;
75682;SDS011;64295;44.772;39.872;2022-10-22T13:49:18;75.97;;;35.30;;
75682;SDS011;64295;44.772;39.872;2022-10-22T13:51:47;24.10;;;15.20;;
75682;SDS011;64295;44.772;39.872;2022-10-22T13:54:16;16.67;;;7.90;;
75682;SDS011;64295;44.772;39.872;2022-10-22T13:56:45;14.32;;;8.68;;
75682;SDS011;64295;44.772;39.872;2022-10-22T13:59:11;13.50;;;6.60;;
75682;SDS011;64295;44.772;39.872;2022-10-22T14:01:37;12.23;;;7.40;;
75682;SDS011;64295;44.772;39.872;2022-10-22T14:04:04;9.57;;;5.45;;
75682;SDS011;64295;44.772;39.872;2022-10-22T14:06:32;8.18;;;3.80;;
75682;SDS011;64295;44.772;39.872;2022-10-22T14:09:01;6.10;;;3.72;;
75682;SDS011;64295;44.772;39.872;2022-10-22T14:11:29;5.13;;;2.70;;
75682;SDS011;64295;44.772;39.872;2022-10-22T14:13:57;5.53;;;3.08;;
75682;SDS011;64295;44.772;39.872;2022-10-22T14:16:24;6.05;;;3.10;;
75682;SDS011;64295;44.772;39.872;2022-10-22T14:21:18;5.82;;;3.20;;
75682;SDS011;64295;44.772;39.872;2022-10-22T14:23:45;6.10;;;3.63;;
75682;SDS011;64295;44.772;39.872;2022-10-22T14:26:22;9.40;;;4.07;;
75682;SDS011;64295;44.772;39.872;2022-10-22T14:28:52;17.85;;;8.27;;
75682;SDS011;64295;44.772;39.872;2022-10-22T14:31:18;19.13;;;9.35;;
75682;SDS011;64295;44.772;39.872;2022-10-22T14:33:44;16.92;;;10.75;;
75682;SDS011;64295;44.772;39.872;2022-10-22T14:36:11;16.23;;;8.52;;
75682;SDS011;64295;44.772;39.872;2022-10-22T14:38:39;10.45;;;6.10;;
75682;SDS011;64295;44.772;39.872;2022-10-22T14:41:26;11.15;;;4.93;;
75682;SDS011;64295;44.772;39.872;2022-10-22T14:43:52;9.02;;;4.53;;
75682;SDS011;64295;44.772;39.872;2022-10-22T14:46:25;12.15;;;4.90;;
75682;SDS011;64295;44.772;39.872;2022-10-22T14:48:51;9.75;;;4.80;;
75682;SDS011;64295;44.772;39.872;2022-10-22T14:51:17;11.40;;;6.78;;
75682;SDS011;64295;44.772;39.872;2022-10-22T14:53:44;14.52;;;7.97;;
75682;SDS011;64295;44.772;39.872;2022-10-22T14:56:12;22.73;;;12.32;;
75682;SDS011;64295;44.772;39.872;2022-10-22T14:58:40;31.38;;;16.15;;
75682;SDS011;64295;44.772;39.872;2022-10-22T15:01:06;26.00;;;14.13;;
75682;SDS011;64295;44.772;39.872;2022-10-22T15:03:33;29.58;;;14.50;;
75682;SDS011;64295;44.772;39.872;2022-10-22T15:05:59;30.17;;;16.02;;
75682;SDS011;64295;44.772;39.872;2022-10-22T15:08:25;173.68;;;75.97;;
75682;SDS011;64295;44.772;39.872;2022-10-22T15:10:58;91.53;;;41.28;;
75682;SDS011;64295;44.772;39.872;2022-10-22T15:13:27;27.42;;;13.43;;
75682;SDS011;64295;44.772;39.872;2022-10-22T15:15:53;32.47;;;15.77;;
75682;SDS011;64295;44.772;39.872;2022-10-22T15:18:20;30.63;;;15.00;;
75682;SDS011;64295;44.772;39.872;2022-10-22T15:21:00;88.50;;;40.47;;
75682;SDS011;64295;44.772;39.872;2022-10-22T15:23:29;53.03;;;23.48;;
75682;SDS011;64295;44.772;39.872;2022-10-22T15:25:55;27.27;;;13.55;;
75682;SDS011;64295;44.772;39.872;2022-10-22T15:28:22;26.90;;;12.82;;
75682;SDS011;64295;44.772;39.872;2022-10-22T15:30:52;22.00;;;11.95;;
75682;SDS011;64295;44.772;39.872;2022-10-22T15:33:19;24.65;;;13.48;;
75682;SDS011;64295;44.772;39.872;2022-10-22T15:35:45;22.27;;;11.68;;
75682;SDS011;64295;44.772;39.872;2022-10-22T15:38:10;73.80;;;30.77;;
75682;SDS011;64295;44.772;39.872;2022-10-22T15:40:36;48.95;;;21.83;;
75682;SDS011;64295;44.772;39.872;2022-10-22T15:43:02;81.72;;;32.25;;
75682;SDS011;64295;44.772;39.872;2022-10-22T15:45:28;45.65;;;20.65;;
75682;SDS011;64295;44.772;39.872;2022-10-22T15:47:54;22.77;;;12.98;;
75682;SDS011;64295;44.772;39.872;2022-10-22T15:50:20;25.08;;;13.00;;
75682;SDS011;64295;44.772;39.872;2022-10-22T15:52:46;39.80;;;18.90;;
75682;SDS011;64295;44.772;39.872;2022-10-22T15:55:12;109.57;;;45.15;;
75682;SDS011;64295;44.772;39.872;2022-10-22T15:57:38;126.80;;;52.95;;
75682;SDS011;64295;44.772;39.872;2022-10-22T16:00:04;122.30;;;49.72;;
75682;SDS011;64295;44.772;39.872;2022-10-22T16:02:37;101.32;;;44.20;;
75682;SDS011;64295;44.772;39.872;2022-10-22T16:05:03;87.32;;;38.55;;
75682;SDS011;64295;44.772;39.872;2022-10-22T16:07:30;103.72;;;44.70;;
75682;SDS011;64295;44.772;39.872;2022-10-22T16:09:56;177.73;;;70.25;;
75682;SDS011;64295;44.772;39.872;2022-10-22T16:12:22;191.73;;;73.80;;
75682;SDS011;64295;44.772;39.872;2022-10-22T16:14:49;202.10;;;83.47;;
75682;SDS011;64295;44.772;39.872;2022-10-22T16:17:15;204.02;;;83.60;;
75682;SDS011;64295;44.772;39.872;2022-10-22T16:19:41;65.53;;;32.08;;
75682;SDS011;64295;44.772;39.872;2022-10-22T16:22:08;153.80;;;57.13;;
75682;SDS011;64295;44.772;39.872;2022-10-22T16:24:36;103.85;;;42.83;;
75682;SDS011;64295;44.772;39.872;2022-10-22T16:27:06;60.53;;;35.13;;
75682;SDS011;64295;44.772;39.872;2022-10-22T16:29:33;66.05;;;33.17;;
75682;SDS011;64295;44.772;39.872;2022-10-22T16:32:00;38.08;;;21.23;;
75682;SDS011;64295;44.772;39.872;2022-10-22T16:34:26;33.85;;;17.70;;
75682;SDS011;64295;44.772;39.872;2022-10-22T16:36:52;109.05;;;45.13;;
75682;SDS011;64295;44.772;39.872;2022-10-22T16:39:23;84.18;;;36.72;;
75682;SDS011;64295;44.772;39.872;2022-10-22T16:41:49;70.95;;;30.20;;
75682;SDS011;64295;44.772;39.872;2022-10-22T16:44:27;47.40;;;27.75;;
75682;SDS011;64295;44.772;39.872;2022-10-22T16:46:56;38.67;;;20.20;;
75682;SDS011;64295;44.772;39.872;2022-10-22T16:49:22;49.42;;;24.35;;
75682;SDS011;64295;44.772;39.872;2022-10-22T16:51:48;56.40;;;28.17;;
75682;SDS011;64295;44.772;39.872;2022-10-22T16:54:14;44.22;;;24.10;;